createdAt,value
2018-07-05T00:01:42.875Z,8.07
2018-07-05T00:04:16.616Z,8.13
2018-07-05T00:06:50.284Z,8.10
2018-07-05T00:09:24.263Z,7.87
2018-07-05T00:11:58.186Z,7.67
2018-07-05T00:14:32.179Z,8.63
2018-07-05T00:17:05.904Z,8.60
2018-07-05T00:19:39.684Z,8.93
2018-07-05T00:22:13.553Z,9.17
2018-07-05T00:24:47.307Z,7.67
2018-07-05T00:27:21.038Z,9.10
2018-07-05T00:29:55.204Z,9.00
2018-07-05T00:32:29.093Z,8.63
2018-07-05T00:35:03.048Z,8.83
2018-07-05T00:37:36.612Z,7.87
2018-07-05T00:40:10.407Z,9.23
2018-07-05T00:42:44.164Z,9.27
2018-07-05T00:45:18.012Z,11.03
2018-07-05T00:47:51.960Z,9.30
2018-07-05T00:50:25.759Z,10.40
2018-07-05T00:52:59.418Z,11.27
2018-07-05T00:55:32.984Z,9.10
2018-07-05T00:58:06.564Z,9.50
2018-07-05T01:00:40.171Z,9.40
2018-07-05T01:03:14.154Z,9.30
2018-07-05T01:05:47.938Z,9.17
2018-07-05T01:08:21.641Z,9.77
2018-07-05T01:10:55.283Z,10.20
2018-07-05T01:13:29.169Z,9.50
2018-07-05T01:16:02.843Z,10.17
2018-07-05T01:18:36.576Z,10.13
2018-07-05T01:21:10.373Z,10.20
2018-07-05T01:23:44.395Z,10.60
2018-07-05T01:26:18.191Z,10.23
2018-07-05T01:28:52.017Z,11.63
2018-07-05T01:31:25.824Z,11.50
2018-07-05T01:33:59.744Z,10.93
2018-07-05T01:36:33.661Z,11.60
2018-07-05T01:39:07.863Z,12.00
2018-07-05T01:41:41.561Z,11.60
2018-07-05T01:44:15.355Z,11.47
2018-07-05T01:46:49.073Z,11.50
2018-07-05T01:49:23.064Z,11.40
2018-07-05T01:51:56.907Z,11.47
2018-07-05T01:54:30.711Z,11.10
2018-07-05T01:57:04.471Z,11.97
2018-07-05T01:59:38.504Z,13.03
2018-07-05T02:02:12.025Z,11.60
2018-07-05T02:04:46.133Z,11.80
2018-07-05T02:07:19.972Z,11.33
2018-07-05T02:09:53.756Z,11.27
2018-07-05T02:12:27.535Z,11.13
2018-07-05T02:15:01.289Z,12.40
2018-07-05T02:17:35.059Z,12.80
2018-07-05T02:20:08.873Z,12.77
2018-07-05T02:22:42.676Z,11.10
2018-07-05T02:25:16.509Z,11.97
2018-07-05T02:27:50.287Z,11.47
2018-07-05T02:30:24.009Z,10.93
2018-07-05T02:32:57.804Z,12.10
2018-07-05T02:35:31.717Z,11.60
2018-07-05T02:38:11.172Z,11.20
2018-07-05T02:40:45.175Z,11.03
2018-07-05T02:43:18.816Z,11.57
2018-07-05T02:45:52.598Z,10.63
2018-07-05T02:48:26.273Z,11.10
2018-07-05T02:51:00.091Z,11.83
2018-07-05T02:53:33.923Z,11.40
2018-07-05T02:56:07.638Z,10.70
2018-07-05T02:58:41.330Z,11.20
2018-07-05T03:01:14.947Z,11.03
2018-07-05T03:03:48.720Z,12.03
2018-07-05T03:06:22.547Z,12.43
2018-07-05T03:08:56.139Z,10.67
2018-07-05T03:11:29.816Z,11.07
2018-07-05T03:14:03.647Z,10.83
2018-07-05T03:16:37.836Z,11.23
2018-07-05T03:19:11.652Z,11.17
2018-07-05T03:21:45.343Z,10.80
2018-07-05T03:24:19.171Z,10.33
2018-07-05T03:26:52.767Z,10.97
2018-07-05T03:29:26.342Z,10.50
2018-07-05T03:32:00.037Z,11.27
2018-07-05T03:34:33.747Z,10.33
2018-07-05T03:37:07.381Z,10.60
2018-07-05T03:39:41.307Z,10.13
2018-07-05T03:42:14.882Z,9.90
2018-07-05T03:44:49.238Z,9.73
2018-07-05T03:47:23.417Z,10.63
2018-07-05T03:49:57.239Z,11.53
2018-07-05T03:52:30.959Z,10.67
2018-07-05T03:55:04.962Z,10.60
2018-07-05T03:57:38.789Z,10.50
2018-07-05T04:00:12.621Z,10.87
2018-07-05T04:02:46.415Z,11.33
2018-07-05T04:05:20.221Z,10.60
2018-07-05T04:07:54.103Z,10.23
2018-07-05T04:10:27.917Z,11.43
2018-07-05T04:13:01.656Z,11.40
2018-07-05T04:15:35.431Z,11.27
2018-07-05T04:18:09.242Z,11.63
2018-07-05T04:20:43.027Z,11.53
2018-07-05T04:23:16.864Z,12.17
2018-07-05T04:25:50.736Z,12.90
2018-07-05T04:28:24.788Z,12.50
2018-07-05T04:30:58.818Z,13.10
2018-07-05T04:33:32.485Z,12.70
2018-07-05T04:36:06.277Z,14.20
2018-07-05T04:38:40.202Z,14.30
2018-07-05T04:41:13.928Z,13.53
2018-07-05T04:43:47.749Z,13.07
2018-07-05T04:46:21.527Z,14.40
2018-07-05T04:48:55.343Z,14.67
2018-07-05T04:51:29.340Z,13.30
2018-07-05T04:54:03.041Z,14.00
2018-07-05T04:56:36.628Z,13.07
2018-07-05T04:59:10.253Z,11.63
2018-07-05T05:01:44.087Z,10.70
2018-07-05T05:04:17.755Z,9.60
2018-07-05T05:06:51.496Z,9.70
2018-07-05T05:09:25.196Z,9.23
2018-07-05T05:11:59.012Z,9.93
2018-07-05T05:14:33.071Z,9.07
2018-07-05T05:17:06.688Z,8.90
2018-07-05T05:19:40.490Z,10.90
2018-07-05T05:22:14.350Z,10.00
2018-07-05T05:24:48.213Z,10.10
2018-07-05T05:27:22.039Z,11.87
2018-07-05T05:29:55.856Z,12.57
2018-07-05T05:32:29.781Z,10.23
2018-07-05T05:35:03.575Z,10.33
2018-07-05T05:37:37.380Z,10.90
2018-07-05T05:40:11.180Z,10.77
2018-07-05T05:42:44.996Z,10.60
2018-07-05T05:45:18.699Z,11.87
2018-07-05T05:47:52.395Z,11.63
2018-07-05T05:50:26.788Z,11.40
2018-07-05T05:53:00.529Z,11.90
2018-07-05T05:55:34.799Z,11.30
2018-07-05T05:58:08.612Z,12.10
2018-07-05T06:00:42.453Z,11.70
2018-07-05T06:03:16.459Z,13.00
2018-07-05T06:05:50.227Z,12.37
2018-07-05T06:08:24.500Z,12.47
2018-07-05T06:10:58.308Z,12.37
2018-07-05T06:13:32.148Z,11.43
2018-07-05T06:16:05.899Z,10.80
2018-07-05T06:18:39.830Z,10.97
2018-07-05T06:21:14.139Z,11.40
2018-07-05T06:23:47.844Z,10.70
2018-07-05T06:26:21.743Z,10.57
2018-07-05T06:28:55.684Z,10.67
2018-07-05T06:31:29.896Z,11.20
2018-07-05T06:34:03.750Z,10.53
2018-07-05T06:36:37.728Z,9.90
2018-07-05T06:39:11.512Z,10.23
2018-07-05T06:41:45.535Z,9.80
2018-07-05T06:44:19.208Z,9.90
2018-07-05T06:46:52.947Z,8.93
2018-07-05T06:49:26.776Z,8.60
2018-07-05T06:52:00.764Z,8.73
2018-07-05T06:54:34.579Z,8.07
2018-07-05T06:57:08.491Z,7.07
2018-07-05T06:59:42.072Z,6.93
2018-07-05T07:02:15.684Z,6.13
2018-07-05T07:04:49.380Z,6.00
2018-07-05T07:07:23.192Z,6.10
2018-07-05T07:09:57.277Z,4.53
2018-07-05T07:12:31.278Z,4.87
2018-07-05T07:15:05.000Z,4.80
2018-07-05T07:17:38.853Z,3.60
2018-07-05T07:20:12.655Z,3.77
2018-07-05T07:22:46.450Z,3.73
2018-07-05T07:25:20.251Z,3.20
2018-07-05T07:27:54.442Z,3.23
2018-07-05T07:30:28.291Z,3.30
2018-07-05T07:33:02.062Z,2.90
2018-07-05T07:35:35.688Z,2.83
2018-07-05T07:38:09.524Z,3.60
2018-07-05T07:40:43.329Z,3.33
2018-07-05T07:43:11.041Z,2.83
2018-07-05T07:45:38.659Z,3.20
2018-07-05T07:48:06.587Z,3.50
2018-07-05T07:50:34.447Z,3.80
2018-07-05T07:53:02.063Z,3.53
2018-07-05T07:55:29.664Z,3.40
2018-07-05T07:57:57.388Z,3.37
2018-07-05T08:00:25.048Z,3.50
2018-07-05T08:02:52.668Z,3.87
2018-07-05T08:05:20.272Z,3.07
2018-07-05T08:07:48.024Z,2.77
2018-07-05T08:10:15.675Z,2.90
2018-07-05T08:12:43.427Z,2.60
2018-07-05T08:15:11.391Z,2.90
2018-07-05T08:17:39.267Z,3.37
2018-07-05T08:20:07.123Z,2.50
2018-07-05T08:22:34.751Z,3.10
2018-07-05T08:25:02.444Z,2.83
2018-07-05T08:27:30.054Z,2.60
2018-07-05T08:29:57.887Z,3.17
2018-07-05T08:32:25.719Z,2.80
2018-07-05T08:34:53.400Z,2.50
2018-07-05T08:37:21.008Z,2.40
2018-07-05T08:39:48.759Z,2.83
2018-07-05T08:42:16.447Z,2.33
2018-07-05T08:44:44.410Z,2.60
2018-07-05T08:47:12.263Z,3.10
2018-07-05T08:49:39.914Z,2.90
2018-07-05T08:52:07.609Z,2.43
2018-07-05T08:54:35.589Z,2.27
2018-07-05T08:57:03.243Z,2.07
2018-07-05T08:59:30.847Z,2.33
2018-07-05T09:01:58.464Z,2.30
2018-07-05T09:04:26.167Z,2.77
2018-07-05T09:06:53.784Z,2.83
2018-07-05T09:09:21.616Z,2.40
2018-07-05T09:11:49.426Z,2.63
2018-07-05T09:14:17.145Z,2.20
2018-07-05T09:16:44.759Z,2.80
2018-07-05T09:19:12.495Z,2.27
2018-07-05T09:21:40.307Z,2.63
2018-07-05T09:24:08.329Z,2.03
2018-07-05T09:26:36.295Z,2.27
2018-07-05T09:29:04.007Z,1.90
2018-07-05T09:31:31.703Z,2.30
2018-07-05T09:33:59.347Z,2.10
2018-07-05T09:36:26.980Z,1.97
2018-07-05T09:38:54.672Z,1.80
2018-07-05T09:41:22.284Z,1.90
2018-07-05T09:43:50.032Z,1.80
2018-07-05T09:46:17.628Z,1.87
2018-07-05T09:48:45.363Z,1.80
2018-07-05T09:51:13.235Z,2.20
2018-07-05T09:53:40.919Z,2.10
2018-07-05T09:56:08.709Z,2.30
2018-07-05T09:58:36.410Z,2.40
2018-07-05T10:01:05.880Z,2.00
2018-07-05T10:03:33.536Z,1.90
2018-07-05T10:06:01.476Z,1.90
2018-07-05T10:08:29.080Z,1.97
2018-07-05T10:10:56.720Z,2.20
2018-07-05T10:13:24.797Z,1.97
2018-07-05T10:15:52.526Z,2.00
2018-07-05T10:18:20.256Z,1.87
2018-07-05T10:20:47.885Z,2.43
2018-07-05T10:23:15.653Z,3.10
2018-07-05T10:25:43.311Z,3.17
2018-07-05T10:28:11.070Z,4.03
2018-07-05T10:30:44.903Z,3.67
2018-07-05T10:33:18.568Z,4.00
2018-07-05T10:35:46.201Z,3.93
2018-07-05T10:38:13.822Z,3.63
2018-07-05T10:40:47.625Z,3.80
2018-07-05T10:43:21.268Z,3.67
2018-07-05T10:45:54.958Z,3.47
2018-07-05T10:48:28.936Z,4.33
2018-07-05T10:51:02.774Z,3.80
2018-07-05T10:53:36.629Z,4.30
2018-07-05T10:56:10.371Z,4.90
2018-07-05T10:58:44.040Z,4.77
2018-07-05T11:01:17.892Z,4.50
2018-07-05T11:03:51.956Z,4.53
2018-07-05T11:06:25.991Z,4.13
2018-07-05T11:08:59.638Z,4.30
2018-07-05T11:11:33.427Z,5.00
2018-07-05T11:14:07.188Z,4.97
2018-07-05T11:16:40.820Z,4.50
2018-07-05T11:19:14.741Z,3.87
2018-07-05T11:21:48.551Z,4.63
2018-07-05T11:24:22.304Z,4.93
2018-07-05T11:26:56.178Z,4.00
2018-07-05T11:29:29.960Z,4.53
2018-07-05T11:32:03.775Z,5.10
2018-07-05T11:34:37.567Z,4.03
2018-07-05T11:37:11.582Z,3.77
2018-07-05T11:39:45.297Z,4.20
2018-07-05T11:42:19.116Z,3.73
2018-07-05T11:44:52.984Z,4.07
2018-07-05T11:47:26.723Z,4.80
2018-07-05T11:50:00.484Z,4.37
2018-07-05T11:52:34.346Z,4.03
2018-07-05T11:55:08.365Z,4.40
2018-07-05T11:57:42.151Z,3.90
2018-07-05T12:00:15.936Z,4.80
2018-07-05T12:02:49.798Z,4.63
2018-07-05T12:05:23.844Z,3.93
2018-07-05T12:07:57.700Z,4.70
2018-07-05T12:10:31.567Z,4.77
2018-07-05T12:13:05.321Z,5.07
2018-07-05T12:15:39.076Z,5.10
2018-07-05T12:18:12.803Z,5.23
2018-07-05T12:20:46.612Z,5.07
2018-07-05T12:23:20.536Z,4.97
2018-07-05T12:25:54.455Z,5.30
2018-07-05T12:28:28.116Z,5.03
2018-07-05T12:31:01.860Z,5.60
2018-07-05T12:33:35.889Z,5.37
2018-07-05T12:36:09.900Z,5.73
2018-07-05T12:38:43.667Z,5.77
2018-07-05T12:41:17.501Z,5.90
2018-07-05T12:43:51.516Z,5.60
2018-07-05T12:46:25.212Z,5.67
2018-07-05T12:48:58.900Z,6.33
2018-07-05T12:51:32.700Z,6.50
2018-07-05T12:54:06.854Z,6.47
2018-07-05T12:56:40.636Z,5.93
2018-07-05T12:59:14.416Z,6.30
2018-07-05T13:01:48.248Z,6.73
2018-07-05T13:04:22.032Z,6.17
2018-07-05T13:06:55.974Z,6.40
2018-07-05T13:09:29.643Z,6.93
2018-07-05T13:12:03.409Z,7.17
2018-07-05T13:14:37.174Z,7.40
2018-07-05T13:17:10.917Z,6.93
2018-07-05T13:19:44.931Z,6.63
2018-07-05T13:22:20.376Z,7.80
2018-07-05T13:24:54.172Z,8.17
2018-07-05T13:27:28.013Z,7.80
2018-07-05T13:30:01.721Z,8.70
2018-07-05T13:32:35.457Z,8.60
2018-07-05T13:35:09.069Z,9.20
2018-07-05T13:37:42.807Z,8.30
2018-07-05T13:40:16.531Z,8.90
2018-07-05T13:42:50.255Z,8.90
2018-07-05T13:45:24.014Z,9.40
2018-07-05T13:47:57.729Z,9.30
2018-07-05T13:50:31.392Z,8.10
2018-07-05T13:53:05.220Z,9.30
2018-07-05T13:55:38.857Z,9.37
2018-07-05T13:58:12.470Z,9.03
2018-07-05T14:00:46.011Z,9.77
2018-07-05T14:03:19.740Z,10.60
2018-07-05T14:05:53.517Z,13.10
2018-07-05T14:08:27.238Z,11.30
2018-07-05T14:11:00.975Z,13.50
2018-07-05T14:13:34.619Z,8.70
2018-07-05T14:16:14.500Z,11.20
2018-07-05T14:18:54.171Z,10.90
2018-07-05T14:21:30.415Z,12.97
2018-07-05T14:24:06.060Z,9.20
2018-07-05T14:26:40.154Z,8.90
2018-07-05T14:29:19.806Z,12.00
2018-07-05T14:31:59.377Z,11.77
2018-07-05T14:34:39.240Z,11.83
2018-07-05T14:37:18.917Z,11.13
2018-07-05T14:39:58.831Z,10.90
2018-07-05T14:42:38.592Z,12.00
2018-07-05T14:45:18.484Z,11.30
2018-07-05T14:47:58.225Z,10.37
2018-07-05T14:50:38.092Z,9.50
2018-07-05T14:53:17.944Z,9.50
2018-07-05T14:55:57.816Z,7.53
2018-07-05T14:58:37.836Z,7.93
2018-07-05T15:01:17.536Z,6.47
2018-07-05T15:03:57.281Z,6.40
2018-07-05T15:06:36.978Z,7.70
2018-07-05T15:09:16.724Z,7.57
2018-07-05T15:11:56.490Z,7.20
2018-07-05T15:14:36.412Z,8.37
2018-07-05T15:17:16.736Z,8.10
2018-07-05T15:19:56.674Z,7.50
2018-07-05T15:22:36.347Z,6.50
2018-07-05T15:25:16.134Z,6.50
2018-07-05T15:27:49.935Z,6.90
2018-07-05T15:30:29.797Z,7.50
2018-07-05T15:33:09.712Z,8.00
2018-07-05T15:35:49.635Z,8.77
2018-07-05T15:38:29.428Z,7.17
2018-07-05T15:41:03.155Z,8.77
2018-07-05T15:43:43.280Z,8.63
2018-07-05T15:46:22.998Z,7.73
2018-07-05T15:48:56.773Z,7.67
2018-07-05T15:51:30.680Z,7.80
2018-07-05T15:54:04.729Z,8.10
2018-07-05T15:56:38.258Z,7.93
2018-07-05T15:59:11.852Z,8.63
2018-07-05T16:01:45.455Z,8.00
2018-07-05T16:04:19.059Z,8.77
2018-07-05T16:06:52.784Z,7.50
2018-07-05T16:09:26.348Z,9.10
2018-07-05T16:12:00.089Z,8.57
2018-07-05T16:14:33.633Z,9.23
2018-07-05T16:17:07.207Z,8.80
2018-07-05T16:19:47.049Z,7.27
2018-07-05T16:22:21.041Z,8.47
2018-07-05T16:24:54.668Z,7.97
2018-07-05T16:27:28.387Z,8.63
2018-07-05T16:30:02.120Z,8.40
2018-07-05T16:32:35.868Z,8.03
2018-07-05T16:35:09.583Z,8.80
2018-07-05T16:37:43.434Z,9.10
2018-07-05T16:40:17.114Z,7.57
2018-07-05T16:42:50.876Z,7.00
2018-07-05T16:45:24.645Z,8.23
2018-07-05T16:47:58.376Z,8.43
2018-07-05T16:50:31.952Z,9.20
2018-07-05T16:53:05.713Z,9.90
2018-07-05T16:55:45.371Z,10.73
2018-07-05T16:58:24.951Z,8.73
2018-07-05T17:01:04.516Z,8.50
2018-07-05T17:03:44.225Z,8.60
2018-07-05T17:06:23.803Z,9.33
2018-07-05T17:09:03.737Z,8.00
2018-07-05T17:11:43.548Z,8.10
2018-07-05T17:14:23.233Z,8.30
2018-07-05T17:17:02.993Z,8.03
2018-07-05T17:19:42.765Z,8.20
2018-07-05T17:22:22.404Z,8.53
2018-07-05T17:25:02.071Z,6.80
2018-07-05T17:27:41.758Z,7.10
2018-07-05T17:30:21.412Z,7.10
2018-07-05T17:33:00.936Z,7.93
2018-07-05T17:35:40.790Z,7.60
2018-07-05T17:38:20.479Z,6.60
2018-07-05T17:41:00.309Z,7.63
2018-07-05T17:43:40.125Z,6.80
2018-07-05T17:46:20.246Z,6.30
2018-07-05T17:48:59.991Z,6.10
2018-07-05T17:51:39.670Z,6.47
2018-07-05T17:54:19.616Z,6.53
2018-07-05T17:56:59.133Z,7.30
2018-07-05T17:59:39.040Z,6.97
2018-07-05T18:02:18.847Z,5.70
2018-07-05T18:04:58.736Z,4.90
2018-07-05T18:07:38.735Z,6.67
2018-07-05T18:10:18.407Z,6.97
2018-07-05T18:12:58.194Z,5.73
2018-07-05T18:15:37.877Z,6.83
2018-07-05T18:18:17.651Z,7.33
2018-07-05T18:20:57.833Z,7.30
2018-07-05T18:23:37.625Z,7.70
2018-07-05T18:26:17.710Z,8.83
2018-07-05T18:28:57.560Z,9.20
2018-07-05T18:31:37.304Z,9.00
2018-07-05T18:34:17.262Z,9.63
2018-07-05T18:36:56.995Z,10.43
2018-07-05T18:39:36.850Z,9.10
2018-07-05T18:42:16.916Z,9.00
2018-07-05T18:44:56.776Z,9.10
2018-07-05T18:47:36.677Z,7.43
2018-07-05T18:50:16.677Z,6.93
2018-07-05T18:52:56.480Z,7.67
2018-07-05T18:55:30.388Z,8.13
2018-07-05T18:58:10.236Z,8.60
2018-07-05T19:00:50.129Z,8.07
2018-07-05T19:03:30.000Z,6.57
2018-07-05T19:06:10.019Z,7.70
2018-07-05T19:08:49.968Z,6.73
2018-07-05T19:11:29.728Z,5.50
2018-07-05T19:14:09.560Z,5.57
2018-07-05T19:16:49.421Z,6.43
2018-07-05T19:19:29.257Z,6.83
2018-07-05T19:22:09.024Z,6.73
2018-07-05T19:24:48.744Z,7.47
2018-07-05T19:27:28.534Z,7.57
2018-07-05T19:30:08.792Z,7.37
2018-07-05T19:32:48.897Z,7.60
2018-07-05T19:35:28.861Z,7.80
2018-07-05T19:38:08.475Z,7.60
2018-07-05T19:40:42.081Z,7.30
2018-07-05T19:43:21.777Z,9.03
2018-07-05T19:46:01.813Z,8.40
2018-07-05T19:48:41.788Z,8.87
2018-07-05T19:51:21.460Z,9.30
2018-07-05T19:54:01.097Z,10.30
2018-07-05T19:56:40.863Z,10.27
2018-07-05T19:59:20.483Z,9.80
2018-07-05T20:02:00.043Z,9.90
2018-07-05T20:04:39.911Z,10.00
2018-07-05T20:07:19.602Z,10.23
2018-07-05T20:09:59.276Z,10.50
2018-07-05T20:12:38.894Z,9.83
2018-07-05T20:15:18.418Z,11.80
2018-07-05T20:17:58.144Z,10.03
2018-07-05T20:20:37.710Z,10.07
2018-07-05T20:23:17.224Z,10.10
2018-07-05T20:25:57.220Z,9.97
2018-07-05T20:28:36.820Z,11.20
2018-07-05T20:31:16.264Z,11.60
2018-07-05T20:33:55.884Z,10.93
2018-07-05T20:36:35.473Z,10.10
2018-07-05T20:39:15.242Z,9.13
2018-07-05T20:41:54.818Z,9.63
2018-07-05T20:44:34.720Z,10.20
2018-07-05T20:47:14.375Z,9.47
2018-07-05T20:49:54.029Z,11.13
2018-07-05T20:52:33.549Z,11.67
2018-07-05T20:55:13.285Z,12.90
2018-07-05T20:57:52.875Z,12.67
2018-07-05T21:00:32.681Z,13.50
2018-07-05T21:03:12.427Z,12.37
2018-07-05T21:05:52.029Z,11.30
2018-07-05T21:08:31.566Z,10.87
2018-07-05T21:11:11.107Z,11.27
2018-07-05T21:13:50.901Z,10.97
2018-07-05T21:16:30.562Z,11.83
2018-07-05T21:19:10.100Z,11.00
2018-07-05T21:21:49.851Z,11.00
2018-07-05T21:24:29.779Z,10.07
2018-07-05T21:27:09.481Z,9.13
2018-07-05T21:29:49.260Z,9.33
2018-07-05T21:32:29.022Z,8.50
2018-07-05T21:35:08.571Z,9.43
2018-07-05T21:37:48.147Z,7.50
2018-07-05T21:40:27.751Z,8.33
2018-07-05T21:43:07.853Z,8.87
2018-07-05T21:45:47.449Z,8.77
2018-07-05T21:48:26.996Z,8.97
2018-07-05T21:51:06.634Z,9.60
2018-07-05T21:53:46.493Z,9.23
2018-07-05T21:56:25.951Z,9.17
2018-07-05T21:59:05.640Z,10.60
2018-07-05T22:01:45.261Z,9.80
2018-07-05T22:04:25.025Z,10.10
2018-07-05T22:07:04.737Z,10.77
2018-07-05T22:09:44.570Z,11.00
2018-07-05T22:12:24.247Z,10.83
2018-07-05T22:15:04.023Z,10.60
2018-07-05T22:17:49.020Z,11.13
2018-07-05T22:20:34.105Z,10.27
2018-07-05T22:23:19.121Z,10.00
2018-07-05T22:26:04.306Z,10.60
2018-07-05T22:28:49.252Z,9.80
2018-07-05T22:31:33.103Z,7.70
2018-07-05T22:34:13.224Z,8.33
2018-07-05T22:36:52.813Z,8.80
2018-07-05T22:39:32.688Z,8.13
2018-07-05T22:42:12.660Z,9.37
2018-07-05T22:44:52.619Z,8.37
2018-07-05T22:47:32.560Z,9.17
2018-07-05T22:50:12.550Z,9.00
2018-07-05T22:52:52.481Z,9.23
2018-07-05T22:55:32.357Z,8.53
2018-07-05T22:58:12.026Z,7.70
2018-07-05T23:00:52.029Z,8.43
2018-07-05T23:03:31.833Z,7.93
2018-07-05T23:06:11.562Z,8.07
2018-07-05T23:08:51.324Z,9.10
2018-07-05T23:11:33.056Z,9.00
2018-07-05T23:14:12.836Z,8.23
2018-07-05T23:16:52.553Z,8.60
2018-07-05T23:19:32.423Z,9.03
2018-07-05T23:22:12.153Z,9.10
2018-07-05T23:24:52.088Z,8.30
2018-07-05T23:27:32.209Z,9.00
2018-07-05T23:30:11.955Z,9.97
2018-07-05T23:32:51.847Z,9.20
2018-07-05T23:35:31.744Z,9.10
2018-07-05T23:38:11.728Z,8.70
2018-07-05T23:40:51.746Z,9.73
2018-07-05T23:43:31.634Z,10.07
2018-07-05T23:46:11.625Z,10.20
2018-07-05T23:48:51.540Z,9.60
2018-07-05T23:51:31.565Z,9.47
2018-07-05T23:54:11.412Z,9.73
2018-07-05T23:56:51.341Z,9.70
2018-07-05T23:59:31.261Z,8.83
